createdAt,value
2023-08-07T00:00:06.806Z,0.00
2023-08-07T00:02:34.090Z,0.00
2023-08-07T00:05:01.258Z,0.00
2023-08-07T00:07:28.473Z,0.10
2023-08-07T00:09:55.651Z,0.08
2023-08-07T00:12:22.790Z,0.00
2023-08-07T00:14:51.874Z,0.10
2023-08-07T00:17:18.980Z,0.10
2023-08-07T00:19:46.119Z,0.00
2023-08-07T00:22:13.212Z,0.00
2023-08-07T00:24:40.351Z,0.00
2023-08-07T00:27:07.786Z,0.00
2023-08-07T00:29:34.971Z,0.10
2023-08-07T00:32:02.083Z,0.00
2023-08-07T00:34:29.225Z,0.00
2023-08-07T00:36:56.546Z,0.00
2023-08-07T00:39:23.858Z,0.00
2023-08-07T00:41:51.056Z,0.00
2023-08-07T00:44:18.184Z,0.00
2023-08-07T00:46:45.342Z,0.00
2023-08-07T00:49:14.082Z,0.00
2023-08-07T00:51:41.397Z,0.00
2023-08-07T00:54:09.411Z,0.10
2023-08-07T00:56:36.573Z,0.00
2023-08-07T00:59:03.821Z,0.00
2023-08-07T01:01:31.313Z,0.00
2023-08-07T01:03:58.542Z,0.00
2023-08-07T01:06:25.704Z,0.10
2023-08-07T01:08:52.887Z,0.00
2023-08-07T01:11:36.023Z,0.00
2023-08-07T01:14:10.727Z,0.00
2023-08-07T01:16:44.464Z,0.10
2023-08-07T01:19:21.278Z,0.00
2023-08-07T01:21:50.171Z,0.00
2023-08-07T01:24:17.374Z,0.00
2023-08-07T01:26:47.397Z,0.10
2023-08-07T01:29:27.358Z,0.03
2023-08-07T01:31:55.663Z,0.00
2023-08-07T01:34:23.686Z,0.00
2023-08-07T01:36:51.399Z,0.00
2023-08-07T01:39:19.842Z,0.30
2023-08-07T01:41:46.993Z,0.10
2023-08-07T01:44:14.476Z,0.00
2023-08-07T01:46:41.635Z,0.00
2023-08-07T01:49:08.799Z,0.00
2023-08-07T01:51:35.927Z,0.10
2023-08-07T01:54:03.074Z,0.00
2023-08-07T01:56:30.134Z,0.00
2023-08-07T01:58:57.254Z,0.00
2023-08-07T02:01:24.511Z,0.00
2023-08-07T02:03:51.668Z,0.10
2023-08-07T02:06:18.872Z,0.00
2023-08-07T02:08:45.975Z,0.00
2023-08-07T02:11:12.713Z,0.00
2023-08-07T02:13:39.889Z,0.00
2023-08-07T02:16:07.716Z,0.10
2023-08-07T02:18:35.024Z,0.00
2023-08-07T02:21:02.232Z,0.10
2023-08-07T02:23:30.050Z,0.20
2023-08-07T02:25:57.214Z,0.00
2023-08-07T02:28:23.885Z,0.10
2023-08-07T02:30:52.311Z,0.10
2023-08-07T02:33:19.495Z,0.00
2023-08-07T02:35:46.938Z,0.10
2023-08-07T02:38:14.107Z,0.00
2023-08-07T02:40:40.846Z,0.00
2023-08-07T02:43:08.041Z,0.00
2023-08-07T02:45:36.719Z,0.00
2023-08-07T02:48:03.979Z,0.00
2023-08-07T02:50:33.560Z,0.00
2023-08-07T02:53:02.262Z,0.00
2023-08-07T02:55:29.358Z,0.00
2023-08-07T02:57:56.492Z,0.00
2023-08-07T03:00:24.433Z,0.00
2023-08-07T03:02:52.024Z,0.00
2023-08-07T03:05:19.289Z,0.00
2023-08-07T03:07:46.416Z,0.10
2023-08-07T03:10:13.585Z,0.00
2023-08-07T03:12:40.684Z,0.00
2023-08-07T03:15:08.131Z,0.00
2023-08-07T03:17:35.379Z,0.00
2023-08-07T03:20:02.506Z,0.10
2023-08-07T03:22:29.600Z,0.03
2023-08-07T03:24:56.748Z,0.10
2023-08-07T03:27:23.932Z,0.00
2023-08-07T03:29:51.011Z,0.00
2023-08-07T03:32:18.150Z,0.00
2023-08-07T03:34:45.229Z,0.00
2023-08-07T03:37:12.329Z,0.30
2023-08-07T03:39:39.506Z,0.10
2023-08-07T03:42:06.927Z,0.00
2023-08-07T03:44:35.621Z,0.00
2023-08-07T03:47:02.806Z,0.00
2023-08-07T03:49:29.897Z,0.07
2023-08-07T03:51:57.448Z,0.10
2023-08-07T03:54:24.609Z,0.00
2023-08-07T03:56:52.285Z,0.00
2023-08-07T03:59:19.402Z,0.00
2023-08-07T04:01:46.512Z,0.00
2023-08-07T04:04:13.717Z,0.10
2023-08-07T04:06:40.831Z,0.10
2023-08-07T04:09:11.199Z,0.00
2023-08-07T04:11:38.477Z,0.00
2023-08-07T04:14:06.204Z,0.00
2023-08-07T04:16:33.486Z,0.00
2023-08-07T04:19:00.562Z,0.30
2023-08-07T04:21:27.691Z,0.08
2023-08-07T04:23:54.752Z,0.08
2023-08-07T04:26:21.869Z,0.00
2023-08-07T04:28:48.951Z,0.00
2023-08-07T04:31:16.253Z,0.50
2023-08-07T04:33:43.408Z,0.10
2023-08-07T04:36:10.563Z,0.10
2023-08-07T04:38:37.660Z,0.00
2023-08-07T04:41:04.842Z,0.10
2023-08-07T04:43:31.951Z,0.30
2023-08-07T04:45:59.122Z,0.10
2023-08-07T04:48:26.659Z,0.00
2023-08-07T04:50:53.757Z,0.10
2023-08-07T04:53:20.885Z,0.05
2023-08-07T04:55:48.056Z,0.00
2023-08-07T04:58:15.216Z,0.00
2023-08-07T05:00:42.605Z,0.00
2023-08-07T05:03:09.966Z,0.10
2023-08-07T05:05:37.205Z,0.05
2023-08-07T05:08:04.344Z,0.00
2023-08-07T05:10:32.820Z,0.00
2023-08-07T05:12:59.977Z,0.00
2023-08-07T05:15:29.572Z,0.30
2023-08-07T05:17:56.753Z,0.20
2023-08-07T05:20:23.944Z,0.03
2023-08-07T05:22:51.041Z,0.10
2023-08-07T05:25:19.311Z,0.00
2023-08-07T05:27:46.871Z,0.08
2023-08-07T05:30:14.799Z,0.00
2023-08-07T05:32:42.083Z,0.10
2023-08-07T05:35:09.836Z,0.10
2023-08-07T05:37:37.167Z,0.00
2023-08-07T05:40:04.440Z,0.00
2023-08-07T05:42:31.610Z,0.00
2023-08-07T05:44:58.745Z,0.10
2023-08-07T05:47:25.967Z,0.10
2023-08-07T05:49:53.129Z,0.05
2023-08-07T05:52:20.324Z,0.00
2023-08-07T05:54:47.503Z,0.00
2023-08-07T05:57:15.026Z,0.10
2023-08-07T05:59:42.379Z,0.10
2023-08-07T06:02:11.935Z,0.05
2023-08-07T06:04:39.542Z,0.20
2023-08-07T06:07:07.023Z,0.10
2023-08-07T06:09:34.630Z,0.17
2023-08-07T06:12:01.780Z,0.10
2023-08-07T06:14:29.646Z,0.10
2023-08-07T06:16:58.948Z,0.00
2023-08-07T06:19:32.080Z,0.10
2023-08-07T06:21:59.949Z,0.05
2023-08-07T06:24:27.367Z,0.07
2023-08-07T06:26:54.513Z,0.00
2023-08-07T06:29:21.737Z,0.00
2023-08-07T06:31:48.907Z,0.10
2023-08-07T06:34:16.076Z,0.08
2023-08-07T06:36:43.436Z,0.00
2023-08-07T06:39:10.590Z,0.00
2023-08-07T06:41:38.088Z,0.00
2023-08-07T06:44:05.228Z,0.00
2023-08-07T06:46:32.352Z,0.00
2023-08-07T06:48:59.448Z,0.00
2023-08-07T06:51:26.572Z,0.00
2023-08-07T06:53:53.694Z,0.10
2023-08-07T06:56:20.903Z,0.10
2023-08-07T06:58:48.118Z,0.00
2023-08-07T07:01:15.350Z,0.40
2023-08-07T07:03:42.601Z,0.00
2023-08-07T07:06:10.010Z,0.15
2023-08-07T07:08:37.121Z,0.20
2023-08-07T07:11:05.721Z,0.00
2023-08-07T07:13:32.822Z,0.10
2023-08-07T07:15:59.979Z,0.10
2023-08-07T07:18:27.716Z,0.10
2023-08-07T07:20:59.523Z,0.00
2023-08-07T07:23:26.610Z,0.00
2023-08-07T07:25:53.718Z,0.00
2023-08-07T07:28:20.844Z,0.10
2023-08-07T07:30:48.422Z,0.00
2023-08-07T07:33:15.779Z,0.00
2023-08-07T07:35:43.220Z,0.00
2023-08-07T07:38:11.235Z,0.40
2023-08-07T07:40:38.605Z,0.10
2023-08-07T07:43:05.770Z,0.10
2023-08-07T07:45:36.638Z,0.10
2023-08-07T07:48:04.704Z,0.10
2023-08-07T07:50:31.933Z,0.00
2023-08-07T07:52:59.070Z,0.00
2023-08-07T07:55:27.224Z,0.50
2023-08-07T07:57:54.357Z,0.10
2023-08-07T08:00:21.534Z,1.80
2023-08-07T08:02:48.686Z,0.00
2023-08-07T08:05:16.870Z,0.10
2023-08-07T08:07:43.987Z,0.10
2023-08-07T08:10:11.301Z,0.00
2023-08-07T08:12:38.562Z,0.00
2023-08-07T08:15:06.001Z,0.10
2023-08-07T08:17:33.451Z,0.20
2023-08-07T08:20:00.808Z,0.00
2023-08-07T08:22:27.953Z,0.10
2023-08-07T08:24:55.174Z,0.00
2023-08-07T08:27:22.987Z,0.10
2023-08-07T08:29:50.098Z,0.10
2023-08-07T08:32:17.190Z,0.00
2023-08-07T08:34:44.336Z,0.10
2023-08-07T08:37:12.360Z,0.00
2023-08-07T08:39:39.449Z,0.00
2023-08-07T08:42:06.802Z,0.10
2023-08-07T08:44:38.290Z,0.10
2023-08-07T08:47:06.298Z,0.10
2023-08-07T08:49:37.079Z,0.20
2023-08-07T08:52:05.263Z,0.08
2023-08-07T08:54:32.507Z,0.20
2023-08-07T08:57:00.628Z,0.10
2023-08-07T08:59:28.052Z,0.00
2023-08-07T09:01:55.437Z,0.05
2023-08-07T09:04:22.816Z,0.10
2023-08-07T09:06:50.218Z,0.00
2023-08-07T09:09:18.333Z,0.10
2023-08-07T09:11:46.936Z,0.00
2023-08-07T09:14:18.308Z,0.00
2023-08-07T09:16:49.811Z,0.10
2023-08-07T09:19:17.169Z,0.00
2023-08-07T09:21:44.385Z,0.00
2023-08-07T09:24:12.591Z,0.10
2023-08-07T09:26:47.340Z,0.10
2023-08-07T09:29:14.868Z,0.00
2023-08-07T09:31:46.746Z,0.30
2023-08-07T09:34:15.216Z,0.00
2023-08-07T09:36:42.830Z,0.10
2023-08-07T09:39:11.503Z,0.10
2023-08-07T09:41:38.430Z,0.00
2023-08-07T09:44:12.065Z,0.10
2023-08-07T09:46:43.731Z,0.10
2023-08-07T09:49:10.994Z,0.00
2023-08-07T09:51:46.291Z,0.10
2023-08-07T09:54:13.584Z,0.10
2023-08-07T09:56:42.304Z,0.00
2023-08-07T09:59:09.935Z,0.10
2023-08-07T10:01:41.374Z,0.13
2023-08-07T10:04:08.855Z,0.00
2023-08-07T10:06:36.390Z,0.10
2023-08-07T10:09:05.096Z,0.10
2023-08-07T10:11:32.501Z,0.05
2023-08-07T10:14:02.803Z,0.10
2023-08-07T10:16:30.106Z,0.10
2023-08-07T10:18:57.229Z,0.00
2023-08-07T10:21:25.702Z,0.03
2023-08-07T10:23:55.115Z,0.10
2023-08-07T10:26:23.991Z,0.10
2023-08-07T10:28:51.614Z,0.00
2023-08-07T10:31:19.800Z,0.00
2023-08-07T10:33:47.440Z,1.10
2023-08-07T10:36:17.981Z,0.28
2023-08-07T10:38:45.146Z,0.15
2023-08-07T10:41:15.675Z,0.05
2023-08-07T10:43:44.293Z,0.40
2023-08-07T10:46:13.011Z,0.10
2023-08-07T10:48:41.167Z,0.10
2023-08-07T10:51:08.722Z,0.00
2023-08-07T10:53:42.071Z,0.10
2023-08-07T10:56:10.069Z,0.10
2023-08-07T10:58:38.182Z,0.80
2023-08-07T11:01:25.197Z,0.40
2023-08-07T11:03:53.908Z,0.10
2023-08-07T11:06:27.290Z,0.10
2023-08-07T11:08:54.390Z,0.10
2023-08-07T11:11:21.678Z,0.10
2023-08-07T11:13:48.967Z,0.10
2023-08-07T11:16:16.543Z,0.10
2023-08-07T11:18:44.264Z,0.10
2023-08-07T11:21:11.881Z,0.10
2023-08-07T11:23:39.770Z,0.08
2023-08-07T11:26:06.829Z,0.10
2023-08-07T11:28:34.171Z,0.20
2023-08-07T11:31:01.877Z,0.17
2023-08-07T11:33:29.748Z,0.10
2023-08-07T11:35:57.150Z,0.10
2023-08-07T11:38:44.218Z,0.10
2023-08-07T11:41:12.387Z,0.10
2023-08-07T11:43:39.991Z,0.00
2023-08-07T11:46:08.002Z,0.15
2023-08-07T11:48:35.976Z,0.07
2023-08-07T11:51:03.952Z,0.10
2023-08-07T11:53:32.168Z,0.10
2023-08-07T11:56:00.424Z,0.30
2023-08-07T11:58:28.483Z,0.17
2023-08-07T12:00:56.211Z,0.20
2023-08-07T12:03:31.521Z,0.10
2023-08-07T12:05:59.834Z,0.30
2023-08-07T12:08:33.093Z,0.20
2023-08-07T12:11:00.267Z,0.10
2023-08-07T12:13:31.473Z,0.10
2023-08-07T12:15:58.984Z,0.10
2023-08-07T12:18:27.913Z,0.10
2023-08-07T12:21:02.143Z,0.45
2023-08-07T12:23:29.249Z,0.10
2023-08-07T12:25:56.678Z,11.03
2023-08-07T12:28:23.845Z,0.20
2023-08-07T12:30:52.232Z,0.10
2023-08-07T12:33:19.793Z,0.17
2023-08-07T12:35:47.167Z,0.13
2023-08-07T12:38:15.748Z,0.25
2023-08-07T12:40:44.472Z,0.20
2023-08-07T12:43:12.164Z,0.22
2023-08-07T12:48:09.623Z,0.30
2023-08-07T12:50:37.005Z,1.48
2023-08-07T12:53:04.267Z,0.30
2023-08-07T12:55:31.704Z,0.20
2023-08-07T12:57:59.089Z,0.57
2023-08-07T13:00:27.505Z,0.70
2023-08-07T13:02:56.099Z,1.00
2023-08-07T13:05:23.737Z,0.38
2023-08-07T13:07:53.883Z,0.17
2023-08-07T13:10:21.019Z,0.80
2023-08-07T13:12:49.500Z,0.30
2023-08-07T13:15:17.209Z,1.90
2023-08-07T13:17:45.111Z,0.30
2023-08-07T13:20:14.065Z,0.30
2023-08-07T13:22:43.679Z,1.85
2023-08-07T13:25:11.948Z,0.70
2023-08-07T13:27:39.800Z,1.33
2023-08-07T13:30:07.992Z,1.00
2023-08-07T13:32:35.276Z,0.70
2023-08-07T13:35:02.656Z,0.28
2023-08-07T13:37:30.000Z,0.28
2023-08-07T13:39:57.130Z,0.40
2023-08-07T13:42:27.267Z,0.40
2023-08-07T13:44:54.266Z,0.20
2023-08-07T13:47:21.861Z,0.40
2023-08-07T13:49:49.269Z,0.70
2023-08-07T13:52:16.644Z,0.23
2023-08-07T13:54:43.398Z,1.13
2023-08-07T13:57:10.921Z,3.35
2023-08-07T13:59:37.669Z,0.68
2023-08-07T14:02:04.911Z,1.15
2023-08-07T14:04:32.088Z,0.50
2023-08-07T14:06:59.627Z,0.88
2023-08-07T14:09:29.758Z,0.55
2023-08-07T14:11:58.181Z,0.63
2023-08-07T14:14:25.646Z,1.30
2023-08-07T14:16:52.852Z,1.25
2023-08-07T14:19:20.645Z,0.80
2023-08-07T14:21:50.161Z,1.10
2023-08-07T14:24:18.327Z,2.33
2023-08-07T14:26:45.396Z,2.17
2023-08-07T14:29:12.630Z,0.90
2023-08-07T14:31:40.880Z,1.67
2023-08-07T14:34:08.726Z,2.30
2023-08-07T14:36:35.842Z,0.87
2023-08-07T14:39:03.296Z,4.03
2023-08-07T14:41:30.445Z,1.67
2023-08-07T14:43:57.740Z,3.95
2023-08-07T14:46:25.084Z,1.40
2023-08-07T14:48:52.471Z,1.45
2023-08-07T14:51:19.671Z,1.30
2023-08-07T14:53:46.790Z,1.07
2023-08-07T14:56:14.552Z,3.53
2023-08-07T14:58:41.650Z,1.30
2023-08-07T15:01:09.079Z,2.55
2023-08-07T15:03:36.281Z,1.40
2023-08-07T15:06:03.409Z,1.17
2023-08-07T15:08:31.661Z,1.20
2023-08-07T15:10:58.965Z,1.23
2023-08-07T15:13:26.226Z,2.13
2023-08-07T15:15:53.406Z,3.00
2023-08-07T15:18:20.667Z,2.38
2023-08-07T15:20:49.943Z,4.72
2023-08-07T15:23:17.238Z,2.33
2023-08-07T15:25:45.433Z,1.77
2023-08-07T15:28:12.724Z,3.38
2023-08-07T15:30:39.885Z,5.00
2023-08-07T15:33:07.117Z,2.58
2023-08-07T15:35:34.372Z,1.67
2023-08-07T15:38:01.678Z,2.60
2023-08-07T15:40:29.102Z,1.27
2023-08-07T15:42:56.300Z,1.33
2023-08-07T15:45:23.467Z,2.05
2023-08-07T15:47:50.800Z,1.53
2023-08-07T15:50:17.979Z,3.63
2023-08-07T15:52:45.141Z,2.47
2023-08-07T15:55:12.703Z,3.42
2023-08-07T15:57:39.883Z,2.63
2023-08-07T16:00:08.589Z,1.60
2023-08-07T16:02:35.733Z,2.75
2023-08-07T16:05:03.091Z,1.65
2023-08-07T16:07:30.282Z,1.55
2023-08-07T16:09:57.601Z,3.13
2023-08-07T16:12:24.754Z,2.92
2023-08-07T16:14:51.935Z,1.98
2023-08-07T16:17:19.166Z,1.77
2023-08-07T16:19:46.351Z,5.18
2023-08-07T16:22:13.477Z,3.07
2023-08-07T16:24:40.581Z,1.88
2023-08-07T16:27:07.684Z,2.08
2023-08-07T16:29:34.806Z,2.60
2023-08-07T16:32:06.038Z,3.03
2023-08-07T16:34:33.349Z,2.30
2023-08-07T16:37:00.858Z,1.55
2023-08-07T16:39:28.743Z,3.00
2023-08-07T16:41:55.889Z,2.47
2023-08-07T16:44:23.061Z,2.25
2023-08-07T16:46:50.137Z,1.98
2023-08-07T16:49:17.924Z,5.00
2023-08-07T16:51:46.281Z,3.83
2023-08-07T16:54:13.529Z,2.00
2023-08-07T16:56:40.785Z,2.03
2023-08-07T16:59:07.932Z,2.15
2023-08-07T17:01:35.236Z,3.63
2023-08-07T17:04:02.502Z,3.80
2023-08-07T17:06:29.605Z,2.28
2023-08-07T17:08:56.782Z,1.85
2023-08-07T17:11:24.561Z,1.90
2023-08-07T17:13:51.704Z,2.35
2023-08-07T17:16:19.258Z,2.92
2023-08-07T17:18:46.435Z,2.50
2023-08-07T17:21:13.689Z,3.50
2023-08-07T17:23:40.876Z,3.63
2023-08-07T17:26:08.060Z,2.55
2023-08-07T17:28:35.213Z,1.58
2023-08-07T17:31:02.805Z,2.05
2023-08-07T17:33:30.486Z,2.45
2023-08-07T17:35:57.594Z,1.45
2023-08-07T17:38:24.855Z,4.57
2023-08-07T17:40:51.945Z,1.75
2023-08-07T17:43:19.149Z,4.28
2023-08-07T17:45:46.230Z,3.17
2023-08-07T17:48:13.567Z,1.85
2023-08-07T17:50:40.671Z,3.10
2023-08-07T17:53:07.842Z,5.18
2023-08-07T17:55:35.131Z,3.67
2023-08-07T17:58:03.775Z,3.92
2023-08-07T18:00:30.853Z,3.67
2023-08-07T18:02:58.074Z,3.63
2023-08-07T18:05:25.467Z,4.17
2023-08-07T18:07:52.713Z,3.93
2023-08-07T18:10:19.899Z,3.63
2023-08-07T18:12:47.003Z,3.65
2023-08-07T18:15:14.477Z,4.15
2023-08-07T18:17:41.654Z,2.85
2023-08-07T18:20:09.014Z,1.83
2023-08-07T18:22:36.174Z,2.85
2023-08-07T18:25:03.413Z,3.72
2023-08-07T18:27:30.474Z,3.20
2023-08-07T18:29:57.914Z,3.13
2023-08-07T18:32:25.113Z,3.83
2023-08-07T18:34:52.261Z,3.90
2023-08-07T18:37:19.424Z,3.78
2023-08-07T18:39:46.748Z,2.75
2023-08-07T18:42:13.577Z,3.13
2023-08-07T18:44:40.754Z,3.90
2023-08-07T18:47:07.927Z,3.17
2023-08-07T18:49:35.112Z,2.72
2023-08-07T18:52:05.140Z,5.47
2023-08-07T18:54:32.699Z,4.63
2023-08-07T18:57:01.268Z,3.47
2023-08-07T18:59:30.322Z,4.00
2023-08-07T19:01:57.498Z,3.15
2023-08-07T19:04:24.686Z,4.88
2023-08-07T19:06:51.771Z,3.42
2023-08-07T19:09:18.894Z,3.50
2023-08-07T19:11:46.079Z,3.60
2023-08-07T19:14:13.200Z,5.40
2023-08-07T19:16:45.896Z,4.03
2023-08-07T19:19:15.618Z,7.68
2023-08-07T19:21:42.961Z,4.37
2023-08-07T19:24:12.254Z,4.53
2023-08-07T19:26:41.133Z,4.00
2023-08-07T19:29:08.505Z,4.60
2023-08-07T19:31:35.726Z,3.63
2023-08-07T19:34:03.051Z,4.45
2023-08-07T19:36:30.179Z,7.43
2023-08-07T19:38:57.329Z,4.25
2023-08-07T19:41:24.449Z,3.42
2023-08-07T19:43:51.582Z,3.58
2023-08-07T19:46:20.066Z,3.60
2023-08-07T19:48:47.292Z,5.55
2023-08-07T19:51:16.574Z,6.07
2023-08-07T19:53:59.850Z,4.17
2023-08-07T19:56:28.922Z,2.78
2023-08-07T19:58:56.696Z,9.82
2023-08-07T20:01:23.966Z,4.47
2023-08-07T20:03:51.132Z,4.97
2023-08-07T20:06:18.378Z,6.97
2023-08-07T20:08:45.533Z,6.63
2023-08-07T20:11:12.734Z,6.80
2023-08-07T20:13:39.941Z,11.07
2023-08-07T20:16:07.605Z,5.90
2023-08-07T20:18:34.851Z,5.00
2023-08-07T20:21:01.947Z,5.80
2023-08-07T20:23:29.101Z,3.97
2023-08-07T20:25:56.506Z,5.32
2023-08-07T20:28:23.685Z,3.50
2023-08-07T20:30:50.818Z,4.03
2023-08-07T20:33:18.072Z,5.00
2023-08-07T20:35:45.349Z,3.65
2023-08-07T20:38:12.054Z,3.05
2023-08-07T20:40:39.209Z,2.95
2023-08-07T20:43:06.312Z,2.83
2023-08-07T20:45:35.423Z,3.45
2023-08-07T20:48:02.674Z,3.03
2023-08-07T20:50:30.049Z,2.53
2023-08-07T20:52:57.190Z,3.28
2023-08-07T20:55:24.431Z,3.50
2023-08-07T20:57:51.445Z,3.78
2023-08-07T21:00:18.766Z,3.35
2023-08-07T21:02:45.863Z,3.50
2023-08-07T21:05:13.102Z,2.80
2023-08-07T21:07:40.250Z,4.05
2023-08-07T21:10:08.581Z,3.28
2023-08-07T21:12:36.440Z,2.58
2023-08-07T21:15:05.233Z,2.60
2023-08-07T21:17:32.561Z,2.70
2023-08-07T21:19:59.750Z,2.90
2023-08-07T21:22:26.856Z,3.67
2023-08-07T21:24:54.683Z,3.83
2023-08-07T21:27:22.355Z,3.80
2023-08-07T21:29:49.514Z,2.65
2023-08-07T21:32:16.619Z,3.25
2023-08-07T21:34:43.779Z,4.30
2023-08-07T21:37:11.392Z,5.88
2023-08-07T21:39:39.034Z,4.17
2023-08-07T21:42:06.360Z,3.08
2023-08-07T21:44:33.432Z,5.90
2023-08-07T21:47:00.519Z,4.05
2023-08-07T21:49:27.623Z,3.70
2023-08-07T21:51:54.750Z,2.42
2023-08-07T21:54:21.887Z,3.20
2023-08-07T21:56:49.009Z,3.65
2023-08-07T21:59:16.259Z,3.78
2023-08-07T22:01:43.434Z,4.38
2023-08-07T22:04:10.775Z,4.13
2023-08-07T22:06:38.112Z,4.05
2023-08-07T22:09:05.866Z,5.13
2023-08-07T22:11:33.027Z,3.67
2023-08-07T22:14:00.392Z,5.07
2023-08-07T22:16:27.920Z,4.30
2023-08-07T22:18:55.156Z,4.03
2023-08-07T22:21:22.537Z,3.83
2023-08-07T22:23:49.659Z,4.57
2023-08-07T22:26:16.803Z,5.22
2023-08-07T22:28:43.898Z,5.43
2023-08-07T22:31:11.047Z,5.97
2023-08-07T22:33:38.336Z,5.10
2023-08-07T22:36:06.488Z,5.78
2023-08-07T22:38:33.625Z,5.13
2023-08-07T22:41:00.623Z,7.28
2023-08-07T22:43:27.776Z,6.28
2023-08-07T22:45:54.975Z,5.93
2023-08-07T22:48:22.173Z,6.30
2023-08-07T22:50:49.303Z,4.18
2023-08-07T22:53:16.561Z,5.27
2023-08-07T22:55:43.767Z,6.17
2023-08-07T22:58:10.976Z,5.78
2023-08-07T23:00:38.086Z,4.20
2023-08-07T23:03:05.431Z,4.20
2023-08-07T23:05:32.599Z,2.65
2023-08-07T23:07:59.686Z,3.17
2023-08-07T23:10:26.802Z,2.70
2023-08-07T23:12:54.008Z,3.67
2023-08-07T23:15:21.242Z,2.63
2023-08-07T23:17:48.915Z,4.18
2023-08-07T23:20:16.473Z,3.45
2023-08-07T23:22:43.567Z,6.00
2023-08-07T23:25:10.919Z,3.40
2023-08-07T23:27:38.082Z,4.47
2023-08-07T23:30:06.064Z,6.43
2023-08-07T23:32:33.293Z,4.80
2023-08-07T23:35:00.509Z,2.85
2023-08-07T23:37:27.606Z,3.08
2023-08-07T23:39:54.729Z,3.13
2023-08-07T23:42:21.833Z,4.60
2023-08-07T23:44:49.013Z,3.00
2023-08-07T23:47:16.163Z,3.22
2023-08-07T23:49:43.681Z,3.60
2023-08-07T23:52:10.797Z,3.40
2023-08-07T23:54:37.875Z,3.60
2023-08-07T23:57:05.264Z,2.60
2023-08-07T23:59:32.352Z,2.85
